sensor_id;sensor_type;location;lat;lon;timestamp;pressure;altitude;pressure_sealevel;temperature;humidity
30302;BME280;17111;52.130;5.028;2024-02-04T00:00:04;102465.03;;;15.06;52.18
30302;BME280;17111;52.130;5.028;2024-02-04T00:02:32;102468.53;;;15.06;52.62
30302;BME280;17111;52.130;5.028;2024-02-04T00:04:59;102472.06;;;15.07;52.69
30302;BME280;17111;52.130;5.028;2024-02-04T00:07:26;102476.56;;;15.06;52.52
30302;BME280;17111;52.130;5.028;2024-02-04T00:09:53;102472.97;;;15.08;51.85
30302;BME280;17111;52.130;5.028;2024-02-04T00:12:20;102472.06;;;15.07;51.89
30302;BME280;17111;52.130;5.028;2024-02-04T00:14:47;102471.13;;;15.08;52.62
30302;BME280;17111;52.130;5.028;2024-02-04T00:17:16;102472.06;;;15.07;52.78
30302;BME280;17111;52.130;5.028;2024-02-04T00:19:43;102459.59;;;15.08;52.61
30302;BME280;17111;52.130;5.028;2024-02-04T00:22:10;102457.00;;;15.06;51.87
30302;BME280;17111;52.130;5.028;2024-02-04T00:24:36;102459.69;;;15.06;52.04
30302;BME280;17111;52.130;5.028;2024-02-04T00:27:03;102464.06;;;15.07;51.90
30302;BME280;17111;52.130;5.028;2024-02-04T00:29:30;102461.38;;;15.07;52.60
30302;BME280;17111;52.130;5.028;2024-02-04T00:31:57;102468.53;;;15.06;52.92
30302;BME280;17111;52.130;5.028;2024-02-04T00:34:23;102458.72;;;15.07;52.82
30302;BME280;17111;52.130;5.028;2024-02-04T00:36:50;102468.53;;;15.06;52.10
30302;BME280;17111;52.130;5.028;2024-02-04T00:39:17;102470.38;;;15.06;52.79
30302;BME280;17111;52.130;5.028;2024-02-04T00:41:43;102464.16;;;15.05;52.42
30302;BME280;17111;52.130;5.028;2024-02-04T00:44:10;102464.16;;;15.05;53.08
30302;BME280;17111;52.130;5.028;2024-02-04T00:46:36;102470.38;;;15.06;52.15
30302;BME280;17111;52.130;5.028;2024-02-04T00:49:03;102462.34;;;15.06;52.94
30302;BME280;17111;52.130;5.028;2024-02-04T00:51:30;102461.50;;;15.05;53.01
30302;BME280;17111;52.130;5.028;2024-02-04T00:53:58;102456.16;;;15.05;51.98
30302;BME280;17111;52.130;5.028;2024-02-04T00:56:24;102455.19;;;15.06;52.85
30302;BME280;17111;52.130;5.028;2024-02-04T00:58:51;102445.47;;;15.05;52.06
30302;BME280;17111;52.130;5.028;2024-02-04T01:01:18;102441.00;;;15.06;52.18
30302;BME280;17111;52.130;5.028;2024-02-04T01:03:46;102440.13;;;15.05;53.08
30302;BME280;17111;52.130;5.028;2024-02-04T01:06:13;102438.31;;;15.06;52.73
30302;BME280;17111;52.130;5.028;2024-02-04T01:08:39;102437.47;;;15.05;53.15
30302;BME280;17111;52.130;5.028;2024-02-04T01:11:06;102435.66;;;15.06;52.25
30302;BME280;17111;52.130;5.028;2024-02-04T01:13:33;102432.13;;;15.05;52.27
30302;BME280;17111;52.130;5.028;2024-02-04T01:15:59;102428.59;;;15.05;52.52
30302;BME280;17111;52.130;5.028;2024-02-04T01:18:26;102433.16;;;15.03;52.29
30302;BME280;17111;52.130;5.028;2024-02-04T01:20:53;102437.56;;;15.04;52.14
30302;BME280;17111;52.130;5.028;2024-02-04T01:23:19;102436.72;;;15.03;52.37
30302;BME280;17111;52.130;5.028;2024-02-04T01:25:46;102448.25;;;15.04;52.49
30302;BME280;17111;52.130;5.028;2024-02-04T01:28:13;102442.91;;;15.04;52.21
30302;BME280;17111;52.130;5.028;2024-02-04T01:30:39;102436.72;;;15.03;52.21
30302;BME280;17111;52.130;5.028;2024-02-04T01:33:06;102445.59;;;15.04;52.37
30302;BME280;17111;52.130;5.028;2024-02-04T01:35:33;102441.16;;;15.03;52.81
30302;BME280;17111;52.130;5.028;2024-02-04T01:37:59;102451.84;;;15.03;52.21
30302;BME280;17111;52.130;5.028;2024-02-04T01:40:26;102447.41;;;15.03;53.00
30302;BME280;17111;52.130;5.028;2024-02-04T01:42:52;102434.97;;;15.02;52.22
30302;BME280;17111;52.130;5.028;2024-02-04T01:45:19;102435.81;;;15.03;52.55
30302;BME280;17111;52.130;5.028;2024-02-04T01:47:46;102443.84;;;15.03;53.08
30302;BME280;17111;52.130;5.028;2024-02-04T01:50:13;102448.31;;;15.02;52.54
30302;BME280;17111;52.130;5.028;2024-02-04T01:52:41;102456.34;;;15.02;52.90
30302;BME280;17111;52.130;5.028;2024-02-04T01:55:09;102453.66;;;15.02;52.90
30302;BME280;17111;52.130;5.028;2024-02-04T01:57:36;102459.00;;;15.02;52.37
30302;BME280;17111;52.130;5.028;2024-02-04T02:00:04;102469.69;;;15.02;52.07
30302;BME280;17111;52.130;5.028;2024-02-04T02:02:32;102456.34;;;15.02;52.50
30302;BME280;17111;52.130;5.028;2024-02-04T02:05:00;102464.34;;;15.02;52.19
30302;BME280;17111;52.130;5.028;2024-02-04T02:07:27;102450.13;;;15.02;52.29
30302;BME280;17111;52.130;5.028;2024-02-04T02:09:54;102451.84;;;15.03;51.99
30302;BME280;17111;52.130;5.028;2024-02-04T02:12:30;102452.81;;;15.02;52.26
30302;BME280;17111;52.130;5.028;2024-02-04T02:15:02;102451.84;;;15.03;52.20
30302;BME280;17111;52.130;5.028;2024-02-04T02:17:38;102442.13;;;15.02;52.88
30302;BME280;17111;52.130;5.028;2024-02-04T02:20:19;102438.59;;;15.01;53.04
30302;BME280;17111;52.130;5.028;2024-02-04T02:23:07;102435.09;;;15.01;52.25
30302;BME280;17111;52.130;5.028;2024-02-04T02:25:36;102434.97;;;15.02;52.40
30302;BME280;17111;52.130;5.028;2024-02-04T02:28:03;102444.81;;;15.02;52.01
30302;BME280;17111;52.130;5.028;2024-02-04T02:30:30;102445.75;;;15.01;53.07
30302;BME280;17111;52.130;5.028;2024-02-04T02:32:57;102440.41;;;15.01;52.11
30302;BME280;17111;52.130;5.028;2024-02-04T02:35:24;102443.94;;;15.01;52.51
30302;BME280;17111;52.130;5.028;2024-02-04T02:40:40;102441.38;;;15.00;52.97
30302;BME280;17111;52.130;5.028;2024-02-04T02:43:11;102451.09;;;15.01;53.11
30302;BME280;17111;52.130;5.028;2024-02-04T02:45:41;102443.94;;;15.01;53.16
30302;BME280;17111;52.130;5.028;2024-02-04T02:48:09;102435.09;;;15.01;52.49
30302;BME280;17111;52.130;5.028;2024-02-04T02:50:36;102454.63;;;15.01;52.82
30302;BME280;17111;52.130;5.028;2024-02-04T02:53:03;102449.41;;;15.00;52.37
30302;BME280;17111;52.130;5.028;2024-02-04T02:55:30;102447.56;;;15.00;52.15
30302;BME280;17111;52.130;5.028;2024-02-04T02:57:56;102449.47;;;14.98;52.56
30302;BME280;17111;52.130;5.028;2024-02-04T03:00:23;102461.00;;;14.99;52.60
30302;BME280;17111;52.130;5.028;2024-02-04T03:02:50;102458.34;;;14.99;52.19
30302;BME280;17111;52.130;5.028;2024-02-04T03:05:17;102444.06;;;15.00;53.24
30302;BME280;17111;52.130;5.028;2024-02-04T03:07:44;102440.59;;;14.98;52.29
30302;BME280;17111;52.130;5.028;2024-02-04T03:10:11;102436.13;;;14.98;52.62
30302;BME280;17111;52.130;5.028;2024-02-04T03:12:37;102443.28;;;14.98;52.48
30302;BME280;17111;52.130;5.028;2024-02-04T03:15:04;102432.59;;;14.98;52.15
30302;BME280;17111;52.130;5.028;2024-02-04T03:17:31;102440.59;;;14.98;52.10
30302;BME280;17111;52.130;5.028;2024-02-04T03:19:58;102440.59;;;14.98;52.71
30302;BME280;17111;52.130;5.028;2024-02-04T03:22:24;102425.53;;;14.97;52.37
30302;BME280;17111;52.130;5.028;2024-02-04T03:24:52;102441.56;;;14.97;52.27
30302;BME280;17111;52.130;5.028;2024-02-04T03:27:19;102433.56;;;14.97;52.19
30302;BME280;17111;52.130;5.028;2024-02-04T03:29:45;102416.69;;;14.96;52.83
30302;BME280;17111;52.130;5.028;2024-02-04T03:32:12;102419.34;;;14.96;52.89
30302;BME280;17111;52.130;5.028;2024-02-04T03:34:41;102423.84;;;14.96;52.62
30302;BME280;17111;52.130;5.028;2024-02-04T03:37:08;102413.16;;;14.96;53.31
30302;BME280;17111;52.130;5.028;2024-02-04T03:39:35;102418.50;;;14.96;53.17
30302;BME280;17111;52.130;5.028;2024-02-04T03:42:01;102422.94;;;14.95;53.03
30302;BME280;17111;52.130;5.028;2024-02-04T03:44:28;102432.69;;;14.96;52.38
30302;BME280;17111;52.130;5.028;2024-02-04T03:46:55;102429.19;;;14.96;53.28
30302;BME280;17111;52.130;5.028;2024-02-04T03:49:21;102442.53;;;14.96;52.98
30302;BME280;17111;52.130;5.028;2024-02-04T03:51:48;102456.72;;;14.96;52.51
30302;BME280;17111;52.130;5.028;2024-02-04T03:54:15;102459.41;;;14.96;52.51
30302;BME280;17111;52.130;5.028;2024-02-04T03:56:41;102442.53;;;14.96;52.97
30302;BME280;17111;52.130;5.028;2024-02-04T03:59:08;102446.97;;;14.95;52.88
30302;BME280;17111;52.130;5.028;2024-02-04T04:01:37;102443.47;;;14.95;53.05
30302;BME280;17111;52.130;5.028;2024-02-04T04:04:04;102441.63;;;14.95;52.42
30302;BME280;17111;52.130;5.028;2024-02-04T04:06:31;102438.97;;;14.95;53.06
30302;BME280;17111;52.130;5.028;2024-02-04T04:08:58;102430.09;;;14.95;53.04
30302;BME280;17111;52.130;5.028;2024-02-04T04:11:25;102420.28;;;14.95;52.62
30302;BME280;17111;52.130;5.028;2024-02-04T04:13:52;102438.97;;;14.95;52.13
30302;BME280;17111;52.130;5.028;2024-02-04T04:16:22;102430.97;;;14.95;53.12
30302;BME280;17111;52.130;5.028;2024-02-04T04:18:49;102411.53;;;14.93;52.36
30302;BME280;17111;52.130;5.028;2024-02-04T04:21:16;102412.38;;;14.94;52.30
30302;BME280;17111;52.130;5.028;2024-02-04T04:23:43;102417.72;;;14.94;53.18
30302;BME280;17111;52.130;5.028;2024-02-04T04:26:09;102412.38;;;14.94;52.51
30302;BME280;17111;52.130;5.028;2024-02-04T04:28:36;102413.34;;;14.93;52.24
30302;BME280;17111;52.130;5.028;2024-02-04T04:31:03;102397.31;;;14.93;52.64
30302;BME280;17111;52.130;5.028;2024-02-04T04:33:30;102393.69;;;14.94;52.61
30302;BME280;17111;52.130;5.028;2024-02-04T04:35:56;102390.16;;;14.93;53.37
30302;BME280;17111;52.130;5.028;2024-02-04T04:38:23;102402.66;;;14.93;53.07
30302;BME280;17111;52.130;5.028;2024-02-04T04:40:50;102395.50;;;14.93;53.00
30302;BME280;17111;52.130;5.028;2024-02-04T04:43:17;102394.66;;;14.93;52.79
30302;BME280;17111;52.130;5.028;2024-02-04T04:45:43;102387.50;;;14.93;53.24
30302;BME280;17111;52.130;5.028;2024-02-04T04:48:10;102373.28;;;14.93;53.14
30302;BME280;17111;52.130;5.028;2024-02-04T04:50:37;102375.97;;;14.93;52.36
30302;BME280;17111;52.130;5.028;2024-02-04T04:53:04;102389.38;;;14.91;53.07
30302;BME280;17111;52.130;5.028;2024-02-04T04:55:31;102381.38;;;14.91;52.03
30302;BME280;17111;52.130;5.028;2024-02-04T04:57:57;102379.59;;;14.92;52.28
30302;BME280;17111;52.130;5.028;2024-02-04T05:00:24;102376.94;;;14.92;52.38
30302;BME280;17111;52.130;5.028;2024-02-04T05:02:51;102375.97;;;14.93;52.18
30302;BME280;17111;52.130;5.028;2024-02-04T05:05:18;102364.50;;;14.91;52.52
30302;BME280;17111;52.130;5.028;2024-02-04T05:07:45;102360.91;;;14.92;52.14
30302;BME280;17111;52.130;5.028;2024-02-04T05:10:13;102358.25;;;14.92;52.25
30302;BME280;17111;52.130;5.028;2024-02-04T05:12:40;102358.25;;;14.92;52.74
30302;BME280;17111;52.130;5.028;2024-02-04T05:15:07;102361.84;;;14.91;52.09
30302;BME280;17111;52.130;5.028;2024-02-04T05:17:34;102375.19;;;14.91;52.15
30302;BME280;17111;52.130;5.028;2024-02-04T05:20:01;102381.47;;;14.90;52.59
30302;BME280;17111;52.130;5.028;2024-02-04T05:22:29;102381.38;;;14.91;52.94
30302;BME280;17111;52.130;5.028;2024-02-04T05:24:56;102361.84;;;14.91;52.11
30302;BME280;17111;52.130;5.028;2024-02-04T05:27:23;102363.66;;;14.90;52.69
30302;BME280;17111;52.130;5.028;2024-02-04T05:29:49;102359.16;;;14.91;52.74
30302;BME280;17111;52.130;5.028;2024-02-04T05:32:16;102359.16;;;14.91;52.13
30302;BME280;17111;52.130;5.028;2024-02-04T05:34:43;102358.41;;;14.89;52.93
30302;BME280;17111;52.130;5.028;2024-02-04T05:37:09;102347.63;;;14.90;53.04
30302;BME280;17111;52.130;5.028;2024-02-04T05:39:36;102348.50;;;14.91;52.28
30302;BME280;17111;52.130;5.028;2024-02-04T05:42:03;102346.78;;;14.90;53.22
30302;BME280;17111;52.130;5.028;2024-02-04T05:44:29;102352.13;;;14.90;53.12
30302;BME280;17111;52.130;5.028;2024-02-04T05:46:56;102347.75;;;14.89;52.43
30302;BME280;17111;52.130;5.028;2024-02-04T05:49:23;102348.59;;;14.89;52.98
30302;BME280;17111;52.130;5.028;2024-02-04T05:51:49;102345.94;;;14.89;52.20
30302;BME280;17111;52.130;5.028;2024-02-04T05:54:16;102353.94;;;14.89;52.43
30302;BME280;17111;52.130;5.028;2024-02-04T05:56:43;102350.41;;;14.89;52.10
30302;BME280;17111;52.130;5.028;2024-02-04T05:59:09;102351.28;;;14.89;53.29
30302;BME280;17111;52.130;5.028;2024-02-04T06:01:36;102338.03;;;14.88;52.31
30302;BME280;17111;52.130;5.028;2024-02-04T06:04:02;102331.72;;;14.89;53.11
30302;BME280;17111;52.130;5.028;2024-02-04T06:06:30;102321.03;;;14.89;52.78
30302;BME280;17111;52.130;5.028;2024-02-04T06:08:57;102324.69;;;14.88;52.60
30302;BME280;17111;52.130;5.028;2024-02-04T06:11:24;102323.72;;;14.89;52.09
30302;BME280;17111;52.130;5.028;2024-02-04T06:13:51;102331.72;;;14.89;52.30
30302;BME280;17111;52.130;5.028;2024-02-04T06:16:17;102318.38;;;14.89;52.53
30302;BME280;17111;52.130;5.028;2024-02-04T06:18:44;102316.56;;;14.89;52.28
30302;BME280;17111;52.130;5.028;2024-02-04T06:21:11;102307.69;;;14.89;52.34
30302;BME280;17111;52.130;5.028;2024-02-04T06:23:38;102316.56;;;14.89;52.31
30302;BME280;17111;52.130;5.028;2024-02-04T06:26:05;102302.38;;;14.89;52.74
30302;BME280;17111;52.130;5.028;2024-02-04T06:28:32;102307.69;;;14.89;53.09
30302;BME280;17111;52.130;5.028;2024-02-04T06:30:58;102305.88;;;14.89;52.24
30302;BME280;17111;52.130;5.028;2024-02-04T06:33:25;102297.88;;;14.89;52.57
30302;BME280;17111;52.130;5.028;2024-02-04T06:35:52;102296.06;;;14.90;53.13
30302;BME280;17111;52.130;5.028;2024-02-04T06:38:19;102306.75;;;14.90;53.08
30302;BME280;17111;52.130;5.028;2024-02-04T06:40:45;102296.06;;;14.90;53.03
30302;BME280;17111;52.130;5.028;2024-02-04T06:43:12;102300.53;;;14.89;52.40
30302;BME280;17111;52.130;5.028;2024-02-04T06:45:39;102306.75;;;14.90;53.02
30302;BME280;17111;52.130;5.028;2024-02-04T06:48:07;102301.41;;;14.90;52.47
30302;BME280;17111;52.130;5.028;2024-02-04T06:50:34;102291.69;;;14.89;52.13
30302;BME280;17111;52.130;5.028;2024-02-04T06:53:01;102302.38;;;14.89;52.48
30302;BME280;17111;52.130;5.028;2024-02-04T06:55:27;102296.06;;;14.90;53.17
30302;BME280;17111;52.130;5.028;2024-02-04T06:57:54;102311.22;;;14.89;52.19
30302;BME280;17111;52.130;5.028;2024-02-04T07:00:21;102307.69;;;14.89;52.79
30302;BME280;17111;52.130;5.028;2024-02-04T07:02:48;102308.56;;;14.89;52.10
30302;BME280;17111;52.130;5.028;2024-02-04T07:05:14;102304.06;;;14.90;52.73
30302;BME280;17111;52.130;5.028;2024-02-04T07:07:42;102305.03;;;14.89;53.17
30302;BME280;17111;52.130;5.028;2024-02-04T07:10:09;102306.75;;;14.90;53.03
30302;BME280;17111;52.130;5.028;2024-02-04T07:12:36;102301.41;;;14.90;52.78
30302;BME280;17111;52.130;5.028;2024-02-04T07:15:03;102298.84;;;14.88;53.12
30302;BME280;17111;52.130;5.028;2024-02-04T07:17:30;102293.38;;;14.90;52.81
30302;BME280;17111;52.130;5.028;2024-02-04T07:19:56;102289.88;;;14.89;53.25
30302;BME280;17111;52.130;5.028;2024-02-04T07:22:23;102296.06;;;14.90;53.26
30302;BME280;17111;52.130;5.028;2024-02-04T07:24:50;102299.69;;;14.89;52.15
30302;BME280;17111;52.130;5.028;2024-02-04T07:27:16;102298.72;;;14.90;53.15
30302;BME280;17111;52.130;5.028;2024-02-04T07:29:43;102293.38;;;14.90;52.97
30302;BME280;17111;52.130;5.028;2024-02-04T07:32:10;102297.88;;;14.89;52.62
30302;BME280;17111;52.130;5.028;2024-02-04T07:34:36;102303.22;;;14.89;53.26
30302;BME280;17111;52.130;5.028;2024-02-04T07:37:03;102306.75;;;14.90;52.95
30302;BME280;17111;52.130;5.028;2024-02-04T07:39:30;102307.59;;;14.90;52.11
30302;BME280;17111;52.130;5.028;2024-02-04T07:41:58;102308.44;;;14.91;53.24
30302;BME280;17111;52.130;5.028;2024-02-04T07:44:27;102303.09;;;14.91;52.99
30302;BME280;17111;52.130;5.028;2024-02-04T07:46:54;102317.31;;;14.91;53.30
30302;BME280;17111;52.130;5.028;2024-02-04T07:49:21;102312.94;;;14.90;52.43
30302;BME280;17111;52.130;5.028;2024-02-04T07:51:48;102313.78;;;14.91;52.93
30302;BME280;17111;52.130;5.028;2024-02-04T07:54:14;102317.31;;;14.91;52.78
30302;BME280;17111;52.130;5.028;2024-02-04T07:56:41;102313.78;;;14.91;52.90
30302;BME280;17111;52.130;5.028;2024-02-04T07:59:08;102307.50;;;14.92;53.39
30302;BME280;17111;52.130;5.028;2024-02-04T08:01:34;102293.28;;;14.91;52.32
30302;BME280;17111;52.130;5.028;2024-02-04T08:04:01;102301.28;;;14.91;52.20
30302;BME280;17111;52.130;5.028;2024-02-04T08:06:29;102298.63;;;14.91;52.21
30302;BME280;17111;52.130;5.028;2024-02-04T08:08:56;102299.50;;;14.92;53.27
30302;BME280;17111;52.130;5.028;2024-02-04T08:11:22;102288.81;;;14.92;53.28
30302;BME280;17111;52.130;5.028;2024-02-04T08:13:49;102289.69;;;14.92;52.90
30302;BME280;17111;52.130;5.028;2024-02-04T08:16:15;102285.19;;;14.93;52.47
30302;BME280;17111;52.130;5.028;2024-02-04T08:18:42;102288.81;;;14.92;52.38
30302;BME280;17111;52.130;5.028;2024-02-04T08:21:09;102284.34;;;14.92;52.39
30302;BME280;17111;52.130;5.028;2024-02-04T08:23:35;102283.50;;;14.92;53.04
30302;BME280;17111;52.130;5.028;2024-02-04T08:26:02;102285.19;;;14.93;53.08
30302;BME280;17111;52.130;5.028;2024-02-04T08:28:30;102287.88;;;14.93;52.57
30302;BME280;17111;52.130;5.028;2024-02-04T08:30:56;102298.53;;;14.93;53.35
30302;BME280;17111;52.130;5.028;2024-02-04T08:33:23;102293.19;;;14.93;52.45
30302;BME280;17111;52.130;5.028;2024-02-04T08:35:50;102298.53;;;14.93;52.36
30302;BME280;17111;52.130;5.028;2024-02-04T08:38:17;102280.81;;;14.92;53.20
30302;BME280;17111;52.130;5.028;2024-02-04T08:40:43;102290.41;;;14.94;52.27
30302;BME280;17111;52.130;5.028;2024-02-04T08:43:10;102285.19;;;14.93;52.42
30302;BME280;17111;52.130;5.028;2024-02-04T08:45:37;102279.84;;;14.93;53.17
30302;BME280;17111;52.130;5.028;2024-02-04T08:48:04;102276.22;;;14.94;52.82
30302;BME280;17111;52.130;5.028;2024-02-04T08:50:31;102275.38;;;14.93;53.25
30302;BME280;17111;52.130;5.028;2024-02-04T08:52:58;102278.88;;;14.94;52.89
30302;BME280;17111;52.130;5.028;2024-02-04T08:55:24;102272.59;;;14.95;52.65
30302;BME280;17111;52.130;5.028;2024-02-04T08:57:51;102277.06;;;14.94;52.46
30302;BME280;17111;52.130;5.028;2024-02-04T09:00:19;102271.72;;;14.94;52.35
30302;BME280;17111;52.130;5.028;2024-02-04T09:02:46;102267.25;;;14.95;53.40
30302;BME280;17111;52.130;5.028;2024-02-04T09:05:13;102264.56;;;14.95;53.22
30302;BME280;17111;52.130;5.028;2024-02-04T09:07:42;102269.84;;;14.96;53.14
30302;BME280;17111;52.130;5.028;2024-02-04T09:10:08;102268.97;;;14.96;52.68
30302;BME280;17111;52.130;5.028;2024-02-04T09:12:35;102267.06;;;14.98;53.17
30302;BME280;17111;52.130;5.028;2024-02-04T09:15:02;102267.06;;;14.98;53.28
30302;BME280;17111;52.130;5.028;2024-02-04T09:17:31;102276.88;;;14.97;52.50
30302;BME280;17111;52.130;5.028;2024-02-04T09:20:01;102282.22;;;14.97;53.08
30302;BME280;17111;52.130;5.028;2024-02-04T09:22:28;102281.25;;;14.98;53.26
30302;BME280;17111;52.130;5.028;2024-02-04T09:24:55;102289.28;;;14.98;52.94
30302;BME280;17111;52.130;5.028;2024-02-04T09:27:22;102286.53;;;15.00;52.54
30302;BME280;17111;52.130;5.028;2024-02-04T09:29:49;102282.03;;;15.00;53.34
30302;BME280;17111;52.130;5.028;2024-02-04T09:32:16;102273.19;;;15.00;53.34
30302;BME280;17111;52.130;5.028;2024-02-04T09:34:44;102281.06;;;15.01;52.46
30302;BME280;17111;52.130;5.028;2024-02-04T09:37:12;102286.41;;;15.01;53.49
30302;BME280;17111;52.130;5.028;2024-02-04T09:39:38;102280.97;;;15.03;53.51
30302;BME280;17111;52.130;5.028;2024-02-04T09:42:05;102270.28;;;15.03;52.69
30302;BME280;17111;52.130;5.028;2024-02-04T09:44:33;102283.63;;;15.03;53.23
30302;BME280;17111;52.130;5.028;2024-02-04T09:46:59;102276.50;;;15.03;52.45
30302;BME280;17111;52.130;5.028;2024-02-04T09:49:27;102269.34;;;15.04;52.88
30302;BME280;17111;52.130;5.028;2024-02-04T09:51:59;102266.69;;;15.04;53.03
30302;BME280;17111;52.130;5.028;2024-02-04T09:54:27;102273.72;;;15.05;53.25
30302;BME280;17111;52.130;5.028;2024-02-04T09:56:55;102270.94;;;15.06;53.41
30302;BME280;17111;52.130;5.028;2024-02-04T09:59:22;102280.78;;;15.06;53.26
30302;BME280;17111;52.130;5.028;2024-02-04T10:01:49;102277.25;;;15.05;52.91
30302;BME280;17111;52.130;5.028;2024-02-04T10:04:16;102275.44;;;15.06;52.80
30302;BME280;17111;52.130;5.028;2024-02-04T10:06:43;102277.13;;;15.07;52.63
30302;BME280;17111;52.130;5.028;2024-02-04T10:09:10;102277.13;;;15.07;53.20
30302;BME280;17111;52.130;5.028;2024-02-04T10:11:37;102276.28;;;15.06;52.55
30302;BME280;17111;52.130;5.028;2024-02-04T10:14:03;102279.81;;;15.07;53.57
30302;BME280;17111;52.130;5.028;2024-02-04T10:16:30;102278.03;;;15.08;52.59
30302;BME280;17111;52.130;5.028;2024-02-04T10:18:57;102285.06;;;15.09;52.56
30302;BME280;17111;52.130;5.028;2024-02-04T10:21:24;102278.88;;;15.08;53.34
30302;BME280;17111;52.130;5.028;2024-02-04T10:23:52;102272.56;;;15.09;53.08
30302;BME280;17111;52.130;5.028;2024-02-04T10:26:18;102273.41;;;15.10;53.34
30302;BME280;17111;52.130;5.028;2024-02-04T10:28:48;102275.25;;;15.09;52.72
30302;BME280;17111;52.130;5.028;2024-02-04T10:31:15;102284.09;;;15.10;53.38
30302;BME280;17111;52.130;5.028;2024-02-04T10:33:42;102284.97;;;15.10;53.50
30302;BME280;17111;52.130;5.028;2024-02-04T10:36:10;102301.84;;;15.11;53.26
30302;BME280;17111;52.130;5.028;2024-02-04T10:38:37;102300.00;;;15.11;53.26
30302;BME280;17111;52.130;5.028;2024-02-04T10:41:04;102307.09;;;15.12;53.29
30302;BME280;17111;52.130;5.028;2024-02-04T10:43:34;102299.16;;;15.11;53.13
30302;BME280;17111;52.130;5.028;2024-02-04T10:46:10;102296.50;;;15.11;53.22
30302;BME280;17111;52.130;5.028;2024-02-04T10:48:41;102299.09;;;15.12;52.65
30302;BME280;17111;52.130;5.028;2024-02-04T10:51:12;102311.59;;;15.12;52.29
30302;BME280;17111;52.130;5.028;2024-02-04T10:53:43;102300.91;;;15.12;53.36
30302;BME280;17111;52.130;5.028;2024-02-04T10:56:37;102303.56;;;15.12;53.46
30302;BME280;17111;52.130;5.028;2024-02-04T10:59:09;102295.56;;;15.12;53.38
30302;BME280;17111;52.130;5.028;2024-02-04T11:01:39;102303.56;;;15.12;53.31
30302;BME280;17111;52.130;5.028;2024-02-04T11:04:06;102307.94;;;15.13;53.40
30302;BME280;17111;52.130;5.028;2024-02-04T11:06:35;102298.22;;;15.12;53.24
30302;BME280;17111;52.130;5.028;2024-02-04T11:09:02;102297.34;;;15.11;53.37
30302;BME280;17111;52.130;5.028;2024-02-04T11:11:30;102290.22;;;15.12;53.40
30302;BME280;17111;52.130;5.028;2024-02-04T11:13:59;102295.56;;;15.12;53.30
30302;BME280;17111;52.130;5.028;2024-02-04T11:24:59;102283.13;;;15.11;53.32
30302;BME280;17111;52.130;5.028;2024-02-04T11:27:29;102280.28;;;15.14;53.27
30302;BME280;17111;52.130;5.028;2024-02-04T11:29:56;102283.06;;;15.12;52.66
30302;BME280;17111;52.130;5.028;2024-02-04T11:32:26;102264.38;;;15.12;53.57
30302;BME280;17111;52.130;5.028;2024-02-04T11:34:54;102261.59;;;15.14;52.63
30302;BME280;17111;52.130;5.028;2024-02-04T11:37:28;102259.03;;;15.12;53.60
30302;BME280;17111;52.130;5.028;2024-02-04T11:39:57;102250.72;;;15.17;53.51
30302;BME280;17111;52.130;5.028;2024-02-04T11:42:24;102245.44;;;15.15;53.54
30302;BME280;17111;52.130;5.028;2024-02-04T11:45:09;102250.06;;;15.13;53.31
30302;BME280;17111;52.130;5.028;2024-02-04T11:47:38;102248.13;;;15.15;53.12
30302;BME280;17111;52.130;5.028;2024-02-04T11:50:06;102241.94;;;15.15;53.64
30302;BME280;17111;52.130;5.028;2024-02-04T11:52:34;102247.28;;;15.15;53.60
30302;BME280;17111;52.130;5.028;2024-02-04T11:55:01;102248.13;;;15.15;53.43
30302;BME280;17111;52.130;5.028;2024-02-04T11:57:28;102248.03;;;15.17;52.63
30302;BME280;17111;52.130;5.028;2024-02-04T11:59:55;102232.97;;;15.16;53.16
30302;BME280;17111;52.130;5.028;2024-02-04T12:02:22;102236.50;;;15.16;53.41
30302;BME280;17111;52.130;5.028;2024-02-04T12:04:49;102234.69;;;15.17;53.37
30302;BME280;17111;52.130;5.028;2024-02-04T12:07:16;102235.53;;;15.17;52.72
30302;BME280;17111;52.130;5.028;2024-02-04T12:09:44;102227.53;;;15.17;53.73
30302;BME280;17111;52.130;5.028;2024-02-04T12:12:11;102227.41;;;15.19;52.81
30302;BME280;17111;52.130;5.028;2024-02-04T12:14:39;102221.22;;;15.18;53.49
30302;BME280;17111;52.130;5.028;2024-02-04T12:17:10;102215.88;;;15.18;53.30
30302;BME280;17111;52.130;5.028;2024-02-04T12:19:37;102217.69;;;15.18;52.61
30302;BME280;17111;52.130;5.028;2024-02-04T12:22:10;102212.25;;;15.19;53.34
30302;BME280;17111;52.130;5.028;2024-02-04T12:24:37;102205.97;;;15.20;53.70
30302;BME280;17111;52.130;5.028;2024-02-04T12:27:05;102213.13;;;15.20;53.45
30302;BME280;17111;52.130;5.028;2024-02-04T12:29:32;102207.78;;;15.20;52.64
30302;BME280;17111;52.130;5.028;2024-02-04T12:32:00;102216.66;;;15.20;52.64
30302;BME280;17111;52.130;5.028;2024-02-04T12:34:27;102207.66;;;15.21;53.68
30302;BME280;17111;52.130;5.028;2024-02-04T12:36:58;102214.84;;;15.21;53.23
30302;BME280;17111;52.130;5.028;2024-02-04T12:39:26;102218.34;;;15.21;53.22
30302;BME280;17111;52.130;5.028;2024-02-04T12:41:53;102220.16;;;15.21;53.08
30302;BME280;17111;52.130;5.028;2024-02-04T12:44:20;102222.00;;;15.20;53.57
30302;BME280;17111;52.130;5.028;2024-02-04T12:46:50;102218.34;;;15.21;52.95
30302;BME280;17111;52.130;5.028;2024-02-04T12:49:19;102221.03;;;15.21;52.83
30302;BME280;17111;52.130;5.028;2024-02-04T12:51:48;102214.84;;;15.21;53.94
30302;BME280;17111;52.130;5.028;2024-02-04T12:54:15;102205.00;;;15.21;52.86
30302;BME280;17111;52.130;5.028;2024-02-04T12:56:48;102210.34;;;15.21;52.93
30302;BME280;17111;52.130;5.028;2024-02-04T12:59:27;102198.81;;;15.21;52.93
30302;BME280;17111;52.130;5.028;2024-02-04T13:01:56;102204.88;;;15.23;52.85